sensor_id;sensor_type;location;lat;lon;timestamp;temperature;humidity
22908;DHT22;11620;50.050;8.690;2022-09-16T00:00:32;17.70;99.90
22908;DHT22;11620;50.050;8.690;2022-09-16T00:03:19;17.70;99.90
22908;DHT22;11620;50.050;8.690;2022-09-16T00:06:06;17.80;99.90
22908;DHT22;11620;50.050;8.690;2022-09-16T00:08:57;17.90;99.90
22908;DHT22;11620;50.050;8.690;2022-09-16T00:11:43;17.70;99.90
22908;DHT22;11620;50.050;8.690;2022-09-16T00:14:30;17.70;99.90
22908;DHT22;11620;50.050;8.690;2022-09-16T00:17:16;17.70;99.90
22908;DHT22;11620;50.050;8.690;2022-09-16T00:20:03;17.60;99.90
22908;DHT22;11620;50.050;8.690;2022-09-16T00:22:50;17.60;99.90
22908;DHT22;11620;50.050;8.690;2022-09-16T00:25:36;17.60;99.90
22908;DHT22;11620;50.050;8.690;2022-09-16T00:28:23;17.60;99.90
22908;DHT22;11620;50.050;8.690;2022-09-16T00:31:09;17.60;99.90
22908;DHT22;11620;50.050;8.690;2022-09-16T00:33:56;17.70;99.90
22908;DHT22;11620;50.050;8.690;2022-09-16T00:36:42;17.50;99.90
22908;DHT22;11620;50.050;8.690;2022-09-16T00:39:29;17.40;99.90
22908;DHT22;11620;50.050;8.690;2022-09-16T00:42:16;17.30;99.90
22908;DHT22;11620;50.050;8.690;2022-09-16T00:45:12;17.30;99.90
22908;DHT22;11620;50.050;8.690;2022-09-16T00:48:03;17.40;99.90
22908;DHT22;11620;50.050;8.690;2022-09-16T00:50:55;17.50;99.90
22908;DHT22;11620;50.050;8.690;2022-09-16T00:53:48;17.60;99.90
22908;DHT22;11620;50.050;8.690;2022-09-16T00:56:40;17.60;99.90
22908;DHT22;11620;50.050;8.690;2022-09-16T00:59:32;17.70;99.90
22908;DHT22;11620;50.050;8.690;2022-09-16T01:02:20;17.60;99.90
22908;DHT22;11620;50.050;8.690;2022-09-16T01:05:11;17.40;99.90
22908;DHT22;11620;50.050;8.690;2022-09-16T01:07:59;17.30;99.90
22908;DHT22;11620;50.050;8.690;2022-09-16T01:10:45;17.40;99.90
22908;DHT22;11620;50.050;8.690;2022-09-16T01:13:32;17.40;99.90
22908;DHT22;11620;50.050;8.690;2022-09-16T01:22:38;17.10;99.90
22908;DHT22;11620;50.050;8.690;2022-09-16T01:48:11;17.20;99.90
22908;DHT22;11620;50.050;8.690;2022-09-16T01:53:35;17.10;99.90
22908;DHT22;11620;50.050;8.690;2022-09-16T02:00:11;17.20;99.90
22908;DHT22;11620;50.050;8.690;2022-09-16T02:02:43;17.10;99.90
22908;DHT22;11620;50.050;8.690;2022-09-16T02:05:38;17.10;99.90
22908;DHT22;11620;50.050;8.690;2022-09-16T02:08:31;17.10;99.90
22908;DHT22;11620;50.050;8.690;2022-09-16T02:11:20;17.10;99.90
22908;DHT22;11620;50.050;8.690;2022-09-16T02:14:17;17.10;99.90
22908;DHT22;11620;50.050;8.690;2022-09-16T02:17:10;17.10;99.90
22908;DHT22;11620;50.050;8.690;2022-09-16T02:23:01;17.10;99.90
22908;DHT22;11620;50.050;8.690;2022-09-16T02:25:49;17.00;99.90
22908;DHT22;11620;50.050;8.690;2022-09-16T02:28:40;17.00;99.90
22908;DHT22;11620;50.050;8.690;2022-09-16T02:31:32;17.00;99.90
22908;DHT22;11620;50.050;8.690;2022-09-16T02:34:27;16.90;99.90
22908;DHT22;11620;50.050;8.690;2022-09-16T02:37:28;16.90;99.90
22908;DHT22;11620;50.050;8.690;2022-09-16T02:40:24;16.80;99.90
22908;DHT22;11620;50.050;8.690;2022-09-16T02:43:11;16.90;99.90
22908;DHT22;11620;50.050;8.690;2022-09-16T02:46:02;16.90;99.90
22908;DHT22;11620;50.050;8.690;2022-09-16T02:55:20;16.90;99.90
22908;DHT22;11620;50.050;8.690;2022-09-16T02:58:10;16.80;99.90
22908;DHT22;11620;50.050;8.690;2022-09-16T03:00:56;16.90;99.90
22908;DHT22;11620;50.050;8.690;2022-09-16T03:03:43;16.90;99.90
22908;DHT22;11620;50.050;8.690;2022-09-16T03:06:30;16.90;99.90
22908;DHT22;11620;50.050;8.690;2022-09-16T03:09:21;16.80;99.90
22908;DHT22;11620;50.050;8.690;2022-09-16T03:12:34;16.80;99.90
22908;DHT22;11620;50.050;8.690;2022-09-16T03:22:05;16.80;99.90
22908;DHT22;11620;50.050;8.690;2022-09-16T03:31:12;16.80;99.90
22908;DHT22;11620;50.050;8.690;2022-09-16T03:34:07;16.80;99.90
22908;DHT22;11620;50.050;8.690;2022-09-16T03:37:06;16.70;99.90
22908;DHT22;11620;50.050;8.690;2022-09-16T03:39:57;16.70;99.90
22908;DHT22;11620;50.050;8.690;2022-09-16T03:42:45;16.70;99.90
22908;DHT22;11620;50.050;8.690;2022-09-16T03:45:31;16.70;99.90
22908;DHT22;11620;50.050;8.690;2022-09-16T03:48:17;16.60;99.90
22908;DHT22;11620;50.050;8.690;2022-09-16T03:51:04;16.60;99.90
22908;DHT22;11620;50.050;8.690;2022-09-16T03:53:51;16.50;99.90
22908;DHT22;11620;50.050;8.690;2022-09-16T03:56:37;16.50;99.90
22908;DHT22;11620;50.050;8.690;2022-09-16T03:59:23;16.50;99.90
22908;DHT22;11620;50.050;8.690;2022-09-16T04:02:10;16.60;99.90
22908;DHT22;11620;50.050;8.690;2022-09-16T04:04:56;16.50;99.90
22908;DHT22;11620;50.050;8.690;2022-09-16T04:07:42;16.50;99.90
22908;DHT22;11620;50.050;8.690;2022-09-16T04:10:29;16.50;99.90
22908;DHT22;11620;50.050;8.690;2022-09-16T04:13:15;16.40;99.90
22908;DHT22;11620;50.050;8.690;2022-09-16T04:16:03;16.40;99.90
22908;DHT22;11620;50.050;8.690;2022-09-16T04:18:49;16.40;99.90
22908;DHT22;11620;50.050;8.690;2022-09-16T04:21:36;16.40;99.90
22908;DHT22;11620;50.050;8.690;2022-09-16T04:24:22;16.40;99.90
22908;DHT22;11620;50.050;8.690;2022-09-16T04:27:08;16.40;99.90
22908;DHT22;11620;50.050;8.690;2022-09-16T04:29:55;16.40;99.90
22908;DHT22;11620;50.050;8.690;2022-09-16T04:32:41;16.50;99.90
22908;DHT22;11620;50.050;8.690;2022-09-16T04:35:28;16.40;99.90
22908;DHT22;11620;50.050;8.690;2022-09-16T04:38:14;16.40;99.90
22908;DHT22;11620;50.050;8.690;2022-09-16T04:41:12;16.40;99.90
22908;DHT22;11620;50.050;8.690;2022-09-16T04:43:59;16.40;99.90
22908;DHT22;11620;50.050;8.690;2022-09-16T04:46:45;16.30;99.90
22908;DHT22;11620;50.050;8.690;2022-09-16T04:49:32;16.30;99.90
22908;DHT22;11620;50.050;8.690;2022-09-16T04:52:18;16.40;99.90
22908;DHT22;11620;50.050;8.690;2022-09-16T04:55:03;16.30;99.90
22908;DHT22;11620;50.050;8.690;2022-09-16T04:57:48;16.30;99.90
22908;DHT22;11620;50.050;8.690;2022-09-16T05:00:33;16.30;99.90
22908;DHT22;11620;50.050;8.690;2022-09-16T05:03:17;16.20;99.90
22908;DHT22;11620;50.050;8.690;2022-09-16T05:06:08;16.10;99.90
22908;DHT22;11620;50.050;8.690;2022-09-16T05:08:54;16.10;99.90
22908;DHT22;11620;50.050;8.690;2022-09-16T05:11:39;16.20;99.90
22908;DHT22;11620;50.050;8.690;2022-09-16T05:14:24;16.20;99.90
22908;DHT22;11620;50.050;8.690;2022-09-16T05:17:10;16.20;99.90
22908;DHT22;11620;50.050;8.690;2022-09-16T05:19:54;16.30;99.90
22908;DHT22;11620;50.050;8.690;2022-09-16T05:22:38;16.30;99.90
22908;DHT22;11620;50.050;8.690;2022-09-16T05:25:23;16.30;99.90
22908;DHT22;11620;50.050;8.690;2022-09-16T05:28:07;16.30;99.90
22908;DHT22;11620;50.050;8.690;2022-09-16T05:30:52;16.30;99.90
22908;DHT22;11620;50.050;8.690;2022-09-16T05:33:37;16.40;99.90
22908;DHT22;11620;50.050;8.690;2022-09-16T05:36:23;16.30;99.90
22908;DHT22;11620;50.050;8.690;2022-09-16T05:39:13;16.30;99.90
22908;DHT22;11620;50.050;8.690;2022-09-16T05:41:59;16.20;99.90
22908;DHT22;11620;50.050;8.690;2022-09-16T05:44:44;16.30;99.90
22908;DHT22;11620;50.050;8.690;2022-09-16T05:47:28;16.30;99.90
22908;DHT22;11620;50.050;8.690;2022-09-16T05:50:13;16.30;99.90
22908;DHT22;11620;50.050;8.690;2022-09-16T05:52:58;16.30;99.90
22908;DHT22;11620;50.050;8.690;2022-09-16T05:55:42;16.40;99.90
22908;DHT22;11620;50.050;8.690;2022-09-16T05:58:29;16.30;99.90
22908;DHT22;11620;50.050;8.690;2022-09-16T06:01:19;16.40;99.90
22908;DHT22;11620;50.050;8.690;2022-09-16T06:04:06;16.60;99.90
22908;DHT22;11620;50.050;8.690;2022-09-16T06:06:51;16.80;99.90
22908;DHT22;11620;50.050;8.690;2022-09-16T06:09:35;17.00;99.90
22908;DHT22;11620;50.050;8.690;2022-09-16T06:12:20;16.90;99.90
22908;DHT22;11620;50.050;8.690;2022-09-16T06:15:04;16.80;99.90
22908;DHT22;11620;50.050;8.690;2022-09-16T06:17:49;16.50;99.90
22908;DHT22;11620;50.050;8.690;2022-09-16T06:20:35;16.40;99.90
22908;DHT22;11620;50.050;8.690;2022-09-16T06:23:20;16.10;99.90
22908;DHT22;11620;50.050;8.690;2022-09-16T06:26:13;16.20;99.90
22908;DHT22;11620;50.050;8.690;2022-09-16T06:28:58;16.20;99.90
22908;DHT22;11620;50.050;8.690;2022-09-16T06:31:43;16.40;99.90
22908;DHT22;11620;50.050;8.690;2022-09-16T06:34:27;16.20;99.90
22908;DHT22;11620;50.050;8.690;2022-09-16T06:37:11;16.00;99.90
22908;DHT22;11620;50.050;8.690;2022-09-16T06:39:57;16.20;99.90
22908;DHT22;11620;50.050;8.690;2022-09-16T06:42:42;16.40;99.90
22908;DHT22;11620;50.050;8.690;2022-09-16T06:45:26;16.50;99.90
22908;DHT22;11620;50.050;8.690;2022-09-16T06:48:12;16.50;99.90
22908;DHT22;11620;50.050;8.690;2022-09-16T06:51:04;16.60;99.90
22908;DHT22;11620;50.050;8.690;2022-09-16T06:53:49;16.60;99.90
22908;DHT22;11620;50.050;8.690;2022-09-16T06:56:35;16.70;99.90
22908;DHT22;11620;50.050;8.690;2022-09-16T06:59:20;16.70;99.90
22908;DHT22;11620;50.050;8.690;2022-09-16T07:02:05;16.70;99.90
22908;DHT22;11620;50.050;8.690;2022-09-16T07:04:49;16.90;99.90
22908;DHT22;11620;50.050;8.690;2022-09-16T07:07:33;17.30;99.90
22908;DHT22;11620;50.050;8.690;2022-09-16T07:10:19;17.80;99.90
22908;DHT22;11620;50.050;8.690;2022-09-16T07:13:04;18.00;99.90
22908;DHT22;11620;50.050;8.690;2022-09-16T07:15:50;17.90;99.90
22908;DHT22;11620;50.050;8.690;2022-09-16T07:18:34;17.80;99.90
22908;DHT22;11620;50.050;8.690;2022-09-16T07:21:20;17.90;99.90
22908;DHT22;11620;50.050;8.690;2022-09-16T07:24:07;17.90;99.90
22908;DHT22;11620;50.050;8.690;2022-09-16T07:26:52;17.90;99.90
22908;DHT22;11620;50.050;8.690;2022-09-16T07:29:37;17.90;99.90
22908;DHT22;11620;50.050;8.690;2022-09-16T07:32:21;17.80;99.90
22908;DHT22;11620;50.050;8.690;2022-09-16T07:35:06;17.80;99.90
22908;DHT22;11620;50.050;8.690;2022-09-16T07:37:51;17.90;99.90
22908;DHT22;11620;50.050;8.690;2022-09-16T07:40:36;17.80;99.90
22908;DHT22;11620;50.050;8.690;2022-09-16T07:43:23;17.70;99.90
22908;DHT22;11620;50.050;8.690;2022-09-16T07:46:09;17.60;99.90
22908;DHT22;11620;50.050;8.690;2022-09-16T07:48:55;17.50;99.90
22908;DHT22;11620;50.050;8.690;2022-09-16T07:51:39;17.50;99.90
22908;DHT22;11620;50.050;8.690;2022-09-16T07:54:24;17.80;99.90
22908;DHT22;11620;50.050;8.690;2022-09-16T07:57:09;18.00;99.90
22908;DHT22;11620;50.050;8.690;2022-09-16T07:59:53;18.10;99.90
22908;DHT22;11620;50.050;8.690;2022-09-16T08:02:38;18.30;99.90
22908;DHT22;11620;50.050;8.690;2022-09-16T08:05:22;18.30;99.90
22908;DHT22;11620;50.050;8.690;2022-09-16T08:08:07;18.20;99.90
22908;DHT22;11620;50.050;8.690;2022-09-16T08:10:55;18.00;99.90
22908;DHT22;11620;50.050;8.690;2022-09-16T08:13:41;18.00;99.90
22908;DHT22;11620;50.050;8.690;2022-09-16T08:16:27;17.90;99.90
22908;DHT22;11620;50.050;8.690;2022-09-16T08:19:11;18.00;99.90
22908;DHT22;11620;50.050;8.690;2022-09-16T08:21:57;18.20;99.90
22908;DHT22;11620;50.050;8.690;2022-09-16T08:24:41;18.50;99.90
22908;DHT22;11620;50.050;8.690;2022-09-16T08:27:25;18.50;99.90
22908;DHT22;11620;50.050;8.690;2022-09-16T08:30:11;18.40;99.90
22908;DHT22;11620;50.050;8.690;2022-09-16T08:32:57;19.00;99.90
22908;DHT22;11620;50.050;8.690;2022-09-16T08:35:41;19.50;99.90
22908;DHT22;11620;50.050;8.690;2022-09-16T08:38:26;20.00;99.90
22908;DHT22;11620;50.050;8.690;2022-09-16T08:44:54;20.80;99.90
22908;DHT22;11620;50.050;8.690;2022-09-16T08:48:06;21.00;99.90
22908;DHT22;11620;50.050;8.690;2022-09-16T08:50:57;20.70;99.90
22908;DHT22;11620;50.050;8.690;2022-09-16T08:53:49;20.90;99.90
22908;DHT22;11620;50.050;8.690;2022-09-16T08:56:35;21.40;99.90
22908;DHT22;11620;50.050;8.690;2022-09-16T08:59:24;21.90;99.90
22908;DHT22;11620;50.050;8.690;2022-09-16T09:02:37;21.80;99.90
22908;DHT22;11620;50.050;8.690;2022-09-16T09:05:55;22.00;99.90
22908;DHT22;11620;50.050;8.690;2022-09-16T09:15:12;22.70;99.90
22908;DHT22;11620;50.050;8.690;2022-09-16T09:18:30;23.10;99.90
22908;DHT22;11620;50.050;8.690;2022-09-16T09:21:32;23.10;99.90
22908;DHT22;11620;50.050;8.690;2022-09-16T09:27:14;23.10;99.90
22908;DHT22;11620;50.050;8.690;2022-09-16T09:33:19;23.40;99.90
22908;DHT22;11620;50.050;8.690;2022-09-16T09:39:52;24.30;99.90
22908;DHT22;11620;50.050;8.690;2022-09-16T09:46:20;23.20;99.90
22908;DHT22;11620;50.050;8.690;2022-09-16T09:49:14;22.50;99.90
22908;DHT22;11620;50.050;8.690;2022-09-16T09:52:16;22.70;99.90
22908;DHT22;11620;50.050;8.690;2022-09-16T09:55:18;22.70;99.90
22908;DHT22;11620;50.050;8.690;2022-09-16T09:58:34;23.30;99.90
22908;DHT22;11620;50.050;8.690;2022-09-16T10:01:20;23.90;99.90
22908;DHT22;11620;50.050;8.690;2022-09-16T10:04:13;23.50;99.90
22908;DHT22;11620;50.050;8.690;2022-09-16T10:06:58;23.20;99.90
22908;DHT22;11620;50.050;8.690;2022-09-16T10:09:48;22.90;99.90
22908;DHT22;11620;50.050;8.690;2022-09-16T10:12:35;22.70;99.90
22908;DHT22;11620;50.050;8.690;2022-09-16T10:15:28;22.50;99.90
22908;DHT22;11620;50.050;8.690;2022-09-16T10:18:25;22.20;99.90
22908;DHT22;11620;50.050;8.690;2022-09-16T10:21:14;22.00;99.90
22908;DHT22;11620;50.050;8.690;2022-09-16T10:24:00;22.00;99.90
22908;DHT22;11620;50.050;8.690;2022-09-16T10:26:45;21.70;99.90
22908;DHT22;11620;50.050;8.690;2022-09-16T10:29:29;21.50;99.90
22908;DHT22;11620;50.050;8.690;2022-09-16T10:32:18;21.50;99.90
22908;DHT22;11620;50.050;8.690;2022-09-16T10:35:06;21.40;99.90
22908;DHT22;11620;50.050;8.690;2022-09-16T10:37:56;21.30;99.90
22908;DHT22;11620;50.050;8.690;2022-09-16T10:40:59;21.30;99.90
22908;DHT22;11620;50.050;8.690;2022-09-16T10:43:52;21.30;99.90
22908;DHT22;11620;50.050;8.690;2022-09-16T10:46:37;21.30;99.90
22908;DHT22;11620;50.050;8.690;2022-09-16T10:49:54;21.30;99.90
22908;DHT22;11620;50.050;8.690;2022-09-16T10:52:45;21.50;99.90
22908;DHT22;11620;50.050;8.690;2022-09-16T10:55:32;21.60;99.90
22908;DHT22;11620;50.050;8.690;2022-09-16T10:58:21;21.70;99.90
22908;DHT22;11620;50.050;8.690;2022-09-16T11:01:21;22.10;99.90
22908;DHT22;11620;50.050;8.690;2022-09-16T11:09:54;22.60;99.90
22908;DHT22;11620;50.050;8.690;2022-09-16T11:22:34;21.60;99.90
22908;DHT22;11620;50.050;8.690;2022-09-16T11:28:29;21.00;99.90
22908;DHT22;11620;50.050;8.690;2022-09-16T11:34:42;21.70;99.90
22908;DHT22;11620;50.050;8.690;2022-09-16T11:40:59;22.60;99.90
22908;DHT22;11620;50.050;8.690;2022-09-16T11:47:16;22.20;99.90
22908;DHT22;11620;50.050;8.690;2022-09-16T11:50:17;22.10;99.90
22908;DHT22;11620;50.050;8.690;2022-09-16T12:05:40;21.70;99.90
22908;DHT22;11620;50.050;8.690;2022-09-16T12:11:22;20.50;99.90
22908;DHT22;11620;50.050;8.690;2022-09-16T12:14:18;20.10;99.90
22908;DHT22;11620;50.050;8.690;2022-09-16T12:17:15;19.80;99.90
22908;DHT22;11620;50.050;8.690;2022-09-16T12:20:40;19.70;99.90
22908;DHT22;11620;50.050;8.690;2022-09-16T12:23:29;19.30;99.90
22908;DHT22;11620;50.050;8.690;2022-09-16T12:26:24;19.20;99.90
22908;DHT22;11620;50.050;8.690;2022-09-16T12:29:16;19.20;99.90
22908;DHT22;11620;50.050;8.690;2022-09-16T12:32:04;19.10;99.90
22908;DHT22;11620;50.050;8.690;2022-09-16T12:34:54;18.80;99.90
22908;DHT22;11620;50.050;8.690;2022-09-16T12:37:46;18.90;99.90
22908;DHT22;11620;50.050;8.690;2022-09-16T12:40:55;18.90;99.90
22908;DHT22;11620;50.050;8.690;2022-09-16T12:53:36;20.30;99.90
22908;DHT22;11620;50.050;8.690;2022-09-16T13:00:22;21.00;99.90
22908;DHT22;11620;50.050;8.690;2022-09-16T13:03:18;21.50;99.90
22908;DHT22;11620;50.050;8.690;2022-09-16T13:06:13;21.80;99.90
22908;DHT22;11620;50.050;8.690;2022-09-16T13:09:31;22.00;99.90
22908;DHT22;11620;50.050;8.690;2022-09-16T13:12:21;22.20;99.90
22908;DHT22;11620;50.050;8.690;2022-09-16T13:15:07;22.50;99.90
22908;DHT22;11620;50.050;8.690;2022-09-16T13:17:52;22.60;99.90
22908;DHT22;11620;50.050;8.690;2022-09-16T13:20:57;22.70;99.90
22908;DHT22;11620;50.050;8.690;2022-09-16T13:23:44;22.80;99.90
22908;DHT22;11620;50.050;8.690;2022-09-16T13:26:42;22.80;99.90
22908;DHT22;11620;50.050;8.690;2022-09-16T13:32:39;22.90;99.90
22908;DHT22;11620;50.050;8.690;2022-09-16T13:35:44;22.80;99.90
22908;DHT22;11620;50.050;8.690;2022-09-16T13:38:42;22.70;99.90
22908;DHT22;11620;50.050;8.690;2022-09-16T13:47:31;22.00;99.90
22908;DHT22;11620;50.050;8.690;2022-09-16T13:50:21;21.70;99.90
22908;DHT22;11620;50.050;8.690;2022-09-16T13:53:23;21.70;99.90
22908;DHT22;11620;50.050;8.690;2022-09-16T14:02:32;22.10;99.90
22908;DHT22;11620;50.050;8.690;2022-09-16T14:14:57;20.70;99.90
22908;DHT22;11620;50.050;8.690;2022-09-16T14:17:47;20.70;99.90
22908;DHT22;11620;50.050;8.690;2022-09-16T14:20:32;20.10;99.90
22908;DHT22;11620;50.050;8.690;2022-09-16T14:23:18;19.90;99.90
22908;DHT22;11620;50.050;8.690;2022-09-16T14:26:15;20.00;99.90
22908;DHT22;11620;50.050;8.690;2022-09-16T14:29:02;19.90;99.90
22908;DHT22;11620;50.050;8.690;2022-09-16T14:31:48;20.10;99.90
22908;DHT22;11620;50.050;8.690;2022-09-16T14:34:35;20.20;99.90
22908;DHT22;11620;50.050;8.690;2022-09-16T14:37:23;20.20;99.90
22908;DHT22;11620;50.050;8.690;2022-09-16T14:40:13;19.70;99.90
22908;DHT22;11620;50.050;8.690;2022-09-16T14:43:04;19.70;99.90
22908;DHT22;11620;50.050;8.690;2022-09-16T14:45:53;19.80;99.90
22908;DHT22;11620;50.050;8.690;2022-09-16T14:48:41;19.80;99.90
22908;DHT22;11620;50.050;8.690;2022-09-16T14:51:28;19.80;99.90
22908;DHT22;11620;50.050;8.690;2022-09-16T14:54:19;19.70;99.90
22908;DHT22;11620;50.050;8.690;2022-09-16T14:57:14;19.30;99.90
22908;DHT22;11620;50.050;8.690;2022-09-16T15:00:03;19.20;99.90
22908;DHT22;11620;50.050;8.690;2022-09-16T15:03:18;19.30;99.90
22908;DHT22;11620;50.050;8.690;2022-09-16T15:06:12;19.00;99.90
22908;DHT22;11620;50.050;8.690;2022-09-16T15:09:03;18.80;99.90
22908;DHT22;11620;50.050;8.690;2022-09-16T15:11:54;18.50;99.90
22908;DHT22;11620;50.050;8.690;2022-09-16T15:14:42;18.50;99.90
22908;DHT22;11620;50.050;8.690;2022-09-16T15:17:30;18.50;99.90
22908;DHT22;11620;50.050;8.690;2022-09-16T15:20:20;18.30;99.90
22908;DHT22;11620;50.050;8.690;2022-09-16T15:23:19;18.00;99.90
22908;DHT22;11620;50.050;8.690;2022-09-16T15:26:15;18.10;99.90
22908;DHT22;11620;50.050;8.690;2022-09-16T15:29:06;18.00;99.90
22908;DHT22;11620;50.050;8.690;2022-09-16T15:32:13;17.90;99.90
22908;DHT22;11620;50.050;8.690;2022-09-16T15:37:56;18.00;99.90
22908;DHT22;11620;50.050;8.690;2022-09-16T15:40:43;17.90;99.90
22908;DHT22;11620;50.050;8.690;2022-09-16T15:46:25;17.80;99.90
22908;DHT22;11620;50.050;8.690;2022-09-16T15:49:11;17.80;99.90
22908;DHT22;11620;50.050;8.690;2022-09-16T15:52:09;17.50;99.90
22908;DHT22;11620;50.050;8.690;2022-09-16T15:55:02;17.30;99.90
22908;DHT22;11620;50.050;8.690;2022-09-16T15:57:57;17.20;99.90
22908;DHT22;11620;50.050;8.690;2022-09-16T16:04:11;17.10;99.90
22908;DHT22;11620;50.050;8.690;2022-09-16T16:07:03;17.00;99.90
22908;DHT22;11620;50.050;8.690;2022-09-16T16:09:50;16.90;99.90
22908;DHT22;11620;50.050;8.690;2022-09-16T16:12:36;16.90;99.90
22908;DHT22;11620;50.050;8.690;2022-09-16T16:15:28;17.00;99.90
22908;DHT22;11620;50.050;8.690;2022-09-16T16:18:16;17.00;99.90
22908;DHT22;11620;50.050;8.690;2022-09-16T16:21:14;17.10;99.90
22908;DHT22;11620;50.050;8.690;2022-09-16T16:24:01;17.10;99.90
22908;DHT22;11620;50.050;8.690;2022-09-16T16:26:47;17.20;99.90
22908;DHT22;11620;50.050;8.690;2022-09-16T16:29:33;17.30;99.90
22908;DHT22;11620;50.050;8.690;2022-09-16T16:32:20;17.20;99.90
22908;DHT22;11620;50.050;8.690;2022-09-16T16:35:06;17.20;99.90
22908;DHT22;11620;50.050;8.690;2022-09-16T16:37:53;17.30;99.90
22908;DHT22;11620;50.050;8.690;2022-09-16T16:40:48;17.20;99.90
22908;DHT22;11620;50.050;8.690;2022-09-16T16:43:35;17.20;99.90
22908;DHT22;11620;50.050;8.690;2022-09-16T16:46:21;17.10;99.90
22908;DHT22;11620;50.050;8.690;2022-09-16T16:49:08;17.10;99.90
22908;DHT22;11620;50.050;8.690;2022-09-16T16:51:54;17.00;99.90
22908;DHT22;11620;50.050;8.690;2022-09-16T16:54:42;16.80;99.90
22908;DHT22;11620;50.050;8.690;2022-09-16T16:57:29;16.70;99.90
22908;DHT22;11620;50.050;8.690;2022-09-16T17:00:15;16.70;99.90
22908;DHT22;11620;50.050;8.690;2022-09-16T17:03:02;16.60;99.90
22908;DHT22;11620;50.050;8.690;2022-09-16T17:05:49;16.70;99.90
22908;DHT22;11620;50.050;8.690;2022-09-16T17:08:35;16.70;99.90
22908;DHT22;11620;50.050;8.690;2022-09-16T17:11:22;16.60;99.90
22908;DHT22;11620;50.050;8.690;2022-09-16T17:14:09;16.60;99.90
22908;DHT22;11620;50.050;8.690;2022-09-16T17:16:56;16.50;99.90
22908;DHT22;11620;50.050;8.690;2022-09-16T17:19:42;16.40;99.90
22908;DHT22;11620;50.050;8.690;2022-09-16T17:22:28;16.30;99.90
22908;DHT22;11620;50.050;8.690;2022-09-16T17:25:15;16.20;99.90
22908;DHT22;11620;50.050;8.690;2022-09-16T17:28:01;16.10;99.90
22908;DHT22;11620;50.050;8.690;2022-09-16T17:30:48;16.20;99.90
22908;DHT22;11620;50.050;8.690;2022-09-16T17:33:34;16.10;99.90
22908;DHT22;11620;50.050;8.690;2022-09-16T17:36:21;16.00;99.90
22908;DHT22;11620;50.050;8.690;2022-09-16T17:39:16;16.10;99.90
22908;DHT22;11620;50.050;8.690;2022-09-16T17:42:03;16.10;99.90
22908;DHT22;11620;50.050;8.690;2022-09-16T17:44:50;16.20;99.90
22908;DHT22;11620;50.050;8.690;2022-09-16T17:47:36;16.10;99.90
22908;DHT22;11620;50.050;8.690;2022-09-16T17:50:22;16.00;99.90
22908;DHT22;11620;50.050;8.690;2022-09-16T17:53:08;16.00;99.90
22908;DHT22;11620;50.050;8.690;2022-09-16T17:56:10;15.90;99.90
22908;DHT22;11620;50.050;8.690;2022-09-16T17:58:57;15.60;99.90
22908;DHT22;11620;50.050;8.690;2022-09-16T18:01:44;15.30;99.90
22908;DHT22;11620;50.050;8.690;2022-09-16T18:04:30;15.20;99.90
22908;DHT22;11620;50.050;8.690;2022-09-16T18:07:17;15.00;99.90
22908;DHT22;11620;50.050;8.690;2022-09-16T18:10:04;15.00;99.90
22908;DHT22;11620;50.050;8.690;2022-09-16T18:12:51;15.00;99.90
22908;DHT22;11620;50.050;8.690;2022-09-16T18:15:37;14.90;99.90
22908;DHT22;11620;50.050;8.690;2022-09-16T18:18:24;15.00;99.90
22908;DHT22;11620;50.050;8.690;2022-09-16T18:21:12;15.00;99.90
22908;DHT22;11620;50.050;8.690;2022-09-16T18:24:04;15.00;99.90
22908;DHT22;11620;50.050;8.690;2022-09-16T18:26:51;15.10;99.90
22908;DHT22;11620;50.050;8.690;2022-09-16T18:29:37;15.10;99.90
22908;DHT22;11620;50.050;8.690;2022-09-16T18:32:25;15.00;99.90
22908;DHT22;11620;50.050;8.690;2022-09-16T18:35:11;15.00;99.90
22908;DHT22;11620;50.050;8.690;2022-09-16T18:37:57;14.90;99.90
22908;DHT22;11620;50.050;8.690;2022-09-16T18:40:44;14.90;99.90
22908;DHT22;11620;50.050;8.690;2022-09-16T18:43:30;14.90;99.90
22908;DHT22;11620;50.050;8.690;2022-09-16T18:46:19;14.90;99.90
22908;DHT22;11620;50.050;8.690;2022-09-16T18:49:06;14.90;99.90
22908;DHT22;11620;50.050;8.690;2022-09-16T18:51:53;14.80;99.90
22908;DHT22;11620;50.050;8.690;2022-09-16T18:54:39;14.80;99.90
22908;DHT22;11620;50.050;8.690;2022-09-16T18:57:26;14.90;99.90
22908;DHT22;11620;50.050;8.690;2022-09-16T19:00:13;14.80;99.90
22908;DHT22;11620;50.050;8.690;2022-09-16T19:02:59;14.80;99.90
22908;DHT22;11620;50.050;8.690;2022-09-16T19:05:55;14.90;99.90
22908;DHT22;11620;50.050;8.690;2022-09-16T19:08:42;14.80;99.90
22908;DHT22;11620;50.050;8.690;2022-09-16T19:11:29;14.70;99.90
22908;DHT22;11620;50.050;8.690;2022-09-16T19:14:15;14.70;99.90
22908;DHT22;11620;50.050;8.690;2022-09-16T19:17:03;14.80;99.90
22908;DHT22;11620;50.050;8.690;2022-09-16T19:19:49;14.70;99.90
22908;DHT22;11620;50.050;8.690;2022-09-16T19:22:37;14.70;99.90
22908;DHT22;11620;50.050;8.690;2022-09-16T19:25:23;14.60;99.90
22908;DHT22;11620;50.050;8.690;2022-09-16T19:28:09;14.50;99.90
22908;DHT22;11620;50.050;8.690;2022-09-16T19:31:07;14.60;99.90
22908;DHT22;11620;50.050;8.690;2022-09-16T19:33:57;14.70;99.90
22908;DHT22;11620;50.050;8.690;2022-09-16T19:36:44;14.70;99.90
22908;DHT22;11620;50.050;8.690;2022-09-16T19:39:30;14.70;99.90
22908;DHT22;11620;50.050;8.690;2022-09-16T19:42:17;14.70;99.90
22908;DHT22;11620;50.050;8.690;2022-09-16T19:45:03;14.70;99.90
22908;DHT22;11620;50.050;8.690;2022-09-16T19:47:49;14.70;99.90
22908;DHT22;11620;50.050;8.690;2022-09-16T19:50:36;14.60;99.90
22908;DHT22;11620;50.050;8.690;2022-09-16T19:53:22;14.60;99.90
22908;DHT22;11620;50.050;8.690;2022-09-16T19:56:11;14.60;99.90
22908;DHT22;11620;50.050;8.690;2022-09-16T19:58:58;14.60;99.90
22908;DHT22;11620;50.050;8.690;2022-09-16T20:01:45;14.50;99.90
22908;DHT22;11620;50.050;8.690;2022-09-16T20:04:32;14.40;99.90
22908;DHT22;11620;50.050;8.690;2022-09-16T20:07:19;14.40;99.90
22908;DHT22;11620;50.050;8.690;2022-09-16T20:10:06;14.10;99.90
22908;DHT22;11620;50.050;8.690;2022-09-16T20:12:52;14.20;99.90
22908;DHT22;11620;50.050;8.690;2022-09-16T20:15:39;13.80;99.90
22908;DHT22;11620;50.050;8.690;2022-09-16T20:18:32;13.80;99.90
22908;DHT22;11620;50.050;8.690;2022-09-16T20:21:24;13.80;99.90
22908;DHT22;11620;50.050;8.690;2022-09-16T20:24:16;13.60;99.90
22908;DHT22;11620;50.050;8.690;2022-09-16T20:27:03;13.70;99.90
22908;DHT22;11620;50.050;8.690;2022-09-16T20:29:49;13.50;99.90
22908;DHT22;11620;50.050;8.690;2022-09-16T20:32:36;13.60;99.90
22908;DHT22;11620;50.050;8.690;2022-09-16T20:35:22;13.50;99.90
22908;DHT22;11620;50.050;8.690;2022-09-16T20:38:08;13.60;99.90
22908;DHT22;11620;50.050;8.690;2022-09-16T20:40:55;13.70;99.90